sensor_id;sensor_type;location;lat;lon;timestamp;P1;durP1;ratioP1;P2;durP2;ratioP2
5010;SDS011;2524;54.364;10.072;2022-12-16T00:01:22;18.33;;;16.13;;
5010;SDS011;2524;54.364;10.072;2022-12-16T00:03:48;14.03;;;12.43;;
5010;SDS011;2524;54.364;10.072;2022-12-16T00:06:24;13.37;;;11.97;;
5010;SDS011;2524;54.364;10.072;2022-12-16T00:08:53;14.27;;;12.63;;
5010;SDS011;2524;54.364;10.072;2022-12-16T00:11:18;13.10;;;11.50;;
5010;SDS011;2524;54.364;10.072;2022-12-16T00:13:44;9.33;;;8.43;;
5010;SDS011;2524;54.364;10.072;2022-12-16T00:16:12;9.67;;;8.80;;
5010;SDS011;2524;54.364;10.072;2022-12-16T00:18:39;13.23;;;11.50;;
5010;SDS011;2524;54.364;10.072;2022-12-16T00:21:05;9.13;;;8.30;;
5010;SDS011;2524;54.364;10.072;2022-12-16T00:23:31;13.10;;;11.00;;
5010;SDS011;2524;54.364;10.072;2022-12-16T00:25:57;13.63;;;11.93;;
5010;SDS011;2524;54.364;10.072;2022-12-16T00:28:24;12.17;;;10.87;;
5010;SDS011;2524;54.364;10.072;2022-12-16T00:30:50;15.83;;;13.50;;
5010;SDS011;2524;54.364;10.072;2022-12-16T00:33:17;11.67;;;10.47;;
5010;SDS011;2524;54.364;10.072;2022-12-16T00:35:44;14.17;;;12.60;;
5010;SDS011;2524;54.364;10.072;2022-12-16T00:38:10;16.20;;;14.10;;
5010;SDS011;2524;54.364;10.072;2022-12-16T00:40:36;19.03;;;16.40;;
5010;SDS011;2524;54.364;10.072;2022-12-16T00:43:01;16.83;;;14.17;;
5010;SDS011;2524;54.364;10.072;2022-12-16T00:45:28;13.40;;;11.97;;
5010;SDS011;2524;54.364;10.072;2022-12-16T00:47:54;15.67;;;13.97;;
5010;SDS011;2524;54.364;10.072;2022-12-16T00:50:19;19.20;;;15.73;;
5010;SDS011;2524;54.364;10.072;2022-12-16T00:52:46;17.80;;;14.23;;
5010;SDS011;2524;54.364;10.072;2022-12-16T00:55:12;17.20;;;14.47;;
5010;SDS011;2524;54.364;10.072;2022-12-16T00:57:39;16.20;;;13.53;;
5010;SDS011;2524;54.364;10.072;2022-12-16T01:00:05;12.13;;;10.90;;
5010;SDS011;2524;54.364;10.072;2022-12-16T01:02:31;17.47;;;14.47;;
5010;SDS011;2524;54.364;10.072;2022-12-16T01:04:57;16.63;;;13.27;;
5010;SDS011;2524;54.364;10.072;2022-12-16T01:07:22;20.47;;;15.80;;
5010;SDS011;2524;54.364;10.072;2022-12-16T01:09:48;18.63;;;15.00;;
5010;SDS011;2524;54.364;10.072;2022-12-16T01:12:14;18.80;;;16.00;;
5010;SDS011;2524;54.364;10.072;2022-12-16T01:14:39;17.77;;;14.83;;
5010;SDS011;2524;54.364;10.072;2022-12-16T01:17:05;27.37;;;22.30;;
5010;SDS011;2524;54.364;10.072;2022-12-16T01:19:30;19.13;;;16.13;;
5010;SDS011;2524;54.364;10.072;2022-12-16T01:21:56;19.50;;;16.70;;
5010;SDS011;2524;54.364;10.072;2022-12-16T01:24:22;16.70;;;13.53;;
5010;SDS011;2524;54.364;10.072;2022-12-16T01:26:47;21.63;;;16.97;;
5010;SDS011;2524;54.364;10.072;2022-12-16T01:29:13;15.70;;;14.00;;
5010;SDS011;2524;54.364;10.072;2022-12-16T01:31:39;18.10;;;15.20;;
5010;SDS011;2524;54.364;10.072;2022-12-16T01:34:04;15.60;;;13.83;;
5010;SDS011;2524;54.364;10.072;2022-12-16T01:36:31;12.50;;;11.20;;
5010;SDS011;2524;54.364;10.072;2022-12-16T01:38:56;14.07;;;12.60;;
5010;SDS011;2524;54.364;10.072;2022-12-16T01:41:22;14.70;;;12.50;;
5010;SDS011;2524;54.364;10.072;2022-12-16T01:43:49;19.83;;;16.50;;
5010;SDS011;2524;54.364;10.072;2022-12-16T01:46:17;22.10;;;18.07;;
5010;SDS011;2524;54.364;10.072;2022-12-16T01:48:58;18.23;;;15.30;;
5010;SDS011;2524;54.364;10.072;2022-12-16T01:51:29;16.67;;;13.80;;
5010;SDS011;2524;54.364;10.072;2022-12-16T01:54:02;20.10;;;16.43;;
5010;SDS011;2524;54.364;10.072;2022-12-16T01:56:38;19.73;;;16.00;;
5010;SDS011;2524;54.364;10.072;2022-12-16T01:59:07;21.37;;;17.43;;
5010;SDS011;2524;54.364;10.072;2022-12-16T02:01:34;24.50;;;20.13;;
5010;SDS011;2524;54.364;10.072;2022-12-16T02:04:00;24.10;;;19.17;;
5010;SDS011;2524;54.364;10.072;2022-12-16T02:06:28;22.07;;;17.77;;
5010;SDS011;2524;54.364;10.072;2022-12-16T02:08:59;18.40;;;15.80;;
5010;SDS011;2524;54.364;10.072;2022-12-16T02:14:25;20.53;;;16.37;;
5010;SDS011;2524;54.364;10.072;2022-12-16T02:17:06;19.00;;;16.20;;
5010;SDS011;2524;54.364;10.072;2022-12-16T02:42:10;16.30;;;14.60;;
5010;SDS011;2524;54.364;10.072;2022-12-16T02:44:46;27.60;;;20.63;;
5010;SDS011;2524;54.364;10.072;2022-12-16T02:47:24;24.10;;;19.40;;
5010;SDS011;2524;54.364;10.072;2022-12-16T02:49:51;24.57;;;18.77;;
5010;SDS011;2524;54.364;10.072;2022-12-16T02:52:18;25.57;;;19.70;;
5010;SDS011;2524;54.364;10.072;2022-12-16T02:54:53;16.50;;;14.67;;
5010;SDS011;2524;54.364;10.072;2022-12-16T03:00:23;15.10;;;13.03;;
5010;SDS011;2524;54.364;10.072;2022-12-16T03:02:58;22.13;;;16.57;;
5010;SDS011;2524;54.364;10.072;2022-12-16T03:05:34;16.90;;;13.83;;
5010;SDS011;2524;54.364;10.072;2022-12-16T03:08:08;22.93;;;17.30;;
5010;SDS011;2524;54.364;10.072;2022-12-16T03:10:38;18.40;;;15.73;;
5010;SDS011;2524;54.364;10.072;2022-12-16T03:13:11;15.83;;;13.97;;
5010;SDS011;2524;54.364;10.072;2022-12-16T03:15:38;12.77;;;11.40;;
5010;SDS011;2524;54.364;10.072;2022-12-16T03:18:07;18.43;;;14.87;;
5010;SDS011;2524;54.364;10.072;2022-12-16T03:20:35;15.60;;;13.90;;
5010;SDS011;2524;54.364;10.072;2022-12-16T03:24:03;15.30;;;13.10;;
5010;SDS011;2524;54.364;10.072;2022-12-16T03:26:22;11.13;;;9.97;;
5010;SDS011;2524;54.364;10.072;2022-12-16T03:28:54;10.47;;;9.40;;
5010;SDS011;2524;54.364;10.072;2022-12-16T03:31:31;16.20;;;14.10;;
5010;SDS011;2524;54.364;10.072;2022-12-16T03:34:02;16.13;;;14.33;;
5010;SDS011;2524;54.364;10.072;2022-12-16T03:36:32;16.83;;;14.83;;
5010;SDS011;2524;54.364;10.072;2022-12-16T03:38:59;22.17;;;16.63;;
5010;SDS011;2524;54.364;10.072;2022-12-16T03:41:27;18.40;;;15.10;;
5010;SDS011;2524;54.364;10.072;2022-12-16T03:43:54;20.13;;;16.23;;
5010;SDS011;2524;54.364;10.072;2022-12-16T03:46:20;17.23;;;13.87;;
5010;SDS011;2524;54.364;10.072;2022-12-16T03:48:46;12.70;;;11.43;;
5010;SDS011;2524;54.364;10.072;2022-12-16T03:51:13;17.30;;;14.10;;
5010;SDS011;2524;54.364;10.072;2022-12-16T03:53:40;12.87;;;11.47;;
5010;SDS011;2524;54.364;10.072;2022-12-16T03:56:06;19.53;;;14.97;;
5010;SDS011;2524;54.364;10.072;2022-12-16T03:58:31;15.00;;;12.27;;
5010;SDS011;2524;54.364;10.072;2022-12-16T04:00:59;13.63;;;10.90;;
5010;SDS011;2524;54.364;10.072;2022-12-16T04:03:25;15.33;;;12.50;;
5010;SDS011;2524;54.364;10.072;2022-12-16T04:05:51;13.30;;;11.60;;
5010;SDS011;2524;54.364;10.072;2022-12-16T04:08:16;14.33;;;11.40;;
5010;SDS011;2524;54.364;10.072;2022-12-16T04:10:42;9.43;;;8.53;;
5010;SDS011;2524;54.364;10.072;2022-12-16T04:13:29;8.80;;;8.00;;
5010;SDS011;2524;54.364;10.072;2022-12-16T04:16:13;9.53;;;7.93;;
5010;SDS011;2524;54.364;10.072;2022-12-16T04:18:59;8.20;;;7.50;;
5010;SDS011;2524;54.364;10.072;2022-12-16T04:21:44;7.70;;;7.00;;
5010;SDS011;2524;54.364;10.072;2022-12-16T04:24:30;7.93;;;7.00;;
5010;SDS011;2524;54.364;10.072;2022-12-16T04:26:56;6.53;;;6.00;;
5010;SDS011;2524;54.364;10.072;2022-12-16T04:29:40;6.70;;;6.20;;
5010;SDS011;2524;54.364;10.072;2022-12-16T04:32:25;6.03;;;5.53;;
5010;SDS011;2524;54.364;10.072;2022-12-16T04:34:50;5.60;;;5.20;;
5010;SDS011;2524;54.364;10.072;2022-12-16T04:37:17;5.97;;;5.57;;
5010;SDS011;2524;54.364;10.072;2022-12-16T04:40:06;6.23;;;5.67;;
5010;SDS011;2524;54.364;10.072;2022-12-16T04:42:50;7.70;;;7.00;;
5010;SDS011;2524;54.364;10.072;2022-12-16T04:45:34;5.57;;;5.10;;
5010;SDS011;2524;54.364;10.072;2022-12-16T04:48:18;5.93;;;5.43;;
5010;SDS011;2524;54.364;10.072;2022-12-16T04:51:02;6.10;;;5.60;;
5010;SDS011;2524;54.364;10.072;2022-12-16T04:53:46;7.90;;;6.77;;
5010;SDS011;2524;54.364;10.072;2022-12-16T04:56:30;7.70;;;7.00;;
5010;SDS011;2524;54.364;10.072;2022-12-16T04:59:14;7.90;;;7.10;;
5010;SDS011;2524;54.364;10.072;2022-12-16T05:01:58;8.23;;;6.90;;
5010;SDS011;2524;54.364;10.072;2022-12-16T05:04:42;7.87;;;7.17;;
5010;SDS011;2524;54.364;10.072;2022-12-16T05:07:27;7.90;;;7.10;;
5010;SDS011;2524;54.364;10.072;2022-12-16T05:10:11;6.80;;;6.03;;
5010;SDS011;2524;54.364;10.072;2022-12-16T05:12:55;6.00;;;5.30;;
5010;SDS011;2524;54.364;10.072;2022-12-16T05:15:39;5.83;;;5.43;;
5010;SDS011;2524;54.364;10.072;2022-12-16T05:18:23;6.70;;;6.00;;
5010;SDS011;2524;54.364;10.072;2022-12-16T05:21:07;7.63;;;7.03;;
5010;SDS011;2524;54.364;10.072;2022-12-16T05:23:51;10.33;;;9.00;;
5010;SDS011;2524;54.364;10.072;2022-12-16T05:26:35;9.03;;;8.20;;
5010;SDS011;2524;54.364;10.072;2022-12-16T05:29:19;7.50;;;6.70;;
5010;SDS011;2524;54.364;10.072;2022-12-16T05:32:03;12.30;;;9.00;;
5010;SDS011;2524;54.364;10.072;2022-12-16T05:35:01;9.47;;;6.90;;
5010;SDS011;2524;54.364;10.072;2022-12-16T05:37:45;9.03;;;7.70;;
5010;SDS011;2524;54.364;10.072;2022-12-16T05:40:29;8.07;;;7.27;;
5010;SDS011;2524;54.364;10.072;2022-12-16T05:43:13;9.47;;;7.77;;
5010;SDS011;2524;54.364;10.072;2022-12-16T05:45:57;8.13;;;7.33;;
5010;SDS011;2524;54.364;10.072;2022-12-16T05:48:41;8.50;;;7.70;;
5010;SDS011;2524;54.364;10.072;2022-12-16T05:51:26;7.50;;;6.90;;
5010;SDS011;2524;54.364;10.072;2022-12-16T05:54:10;6.53;;;5.97;;
5010;SDS011;2524;54.364;10.072;2022-12-16T05:56:54;5.90;;;5.40;;
5010;SDS011;2524;54.364;10.072;2022-12-16T05:59:38;5.23;;;4.83;;
5010;SDS011;2524;54.364;10.072;2022-12-16T06:02:22;6.50;;;6.00;;
5010;SDS011;2524;54.364;10.072;2022-12-16T06:05:06;9.70;;;7.33;;
5010;SDS011;2524;54.364;10.072;2022-12-16T06:07:50;5.83;;;5.43;;
5010;SDS011;2524;54.364;10.072;2022-12-16T06:10:36;6.43;;;5.83;;
5010;SDS011;2524;54.364;10.072;2022-12-16T06:13:40;5.47;;;4.97;;
5010;SDS011;2524;54.364;10.072;2022-12-16T06:16:24;4.30;;;3.90;;
5010;SDS011;2524;54.364;10.072;2022-12-16T06:19:08;5.40;;;5.00;;
5010;SDS011;2524;54.364;10.072;2022-12-16T06:21:53;4.90;;;4.50;;
5010;SDS011;2524;54.364;10.072;2022-12-16T06:24:37;5.03;;;4.60;;
5010;SDS011;2524;54.364;10.072;2022-12-16T06:27:21;4.70;;;4.40;;
5010;SDS011;2524;54.364;10.072;2022-12-16T06:30:05;5.97;;;5.47;;
5010;SDS011;2524;54.364;10.072;2022-12-16T06:32:49;6.20;;;5.67;;
5010;SDS011;2524;54.364;10.072;2022-12-16T06:35:33;5.37;;;4.97;;
5010;SDS011;2524;54.364;10.072;2022-12-16T06:38:18;5.93;;;5.53;;
5010;SDS011;2524;54.364;10.072;2022-12-16T06:41:01;6.20;;;5.70;;
5010;SDS011;2524;54.364;10.072;2022-12-16T06:43:46;5.93;;;5.50;;
5010;SDS011;2524;54.364;10.072;2022-12-16T06:46:30;6.30;;;5.80;;
5010;SDS011;2524;54.364;10.072;2022-12-16T06:49:14;5.70;;;5.30;;
5010;SDS011;2524;54.364;10.072;2022-12-16T06:51:58;8.07;;;7.27;;
5010;SDS011;2524;54.364;10.072;2022-12-16T06:54:42;9.50;;;8.10;;
5010;SDS011;2524;54.364;10.072;2022-12-16T06:57:26;8.67;;;7.87;;
5010;SDS011;2524;54.364;10.072;2022-12-16T07:00:11;9.23;;;8.33;;
5010;SDS011;2524;54.364;10.072;2022-12-16T07:02:55;10.80;;;9.67;;
5010;SDS011;2524;54.364;10.072;2022-12-16T07:05:39;8.33;;;7.63;;
5010;SDS011;2524;54.364;10.072;2022-12-16T07:08:23;9.10;;;8.30;;
5010;SDS011;2524;54.364;10.072;2022-12-16T07:11:07;7.40;;;6.43;;
5010;SDS011;2524;54.364;10.072;2022-12-16T07:13:51;7.67;;;6.87;;
5010;SDS011;2524;54.364;10.072;2022-12-16T07:16:35;7.73;;;7.03;;
5010;SDS011;2524;54.364;10.072;2022-12-16T07:19:20;6.00;;;5.57;;
5010;SDS011;2524;54.364;10.072;2022-12-16T07:22:04;7.50;;;6.70;;
5010;SDS011;2524;54.364;10.072;2022-12-16T07:24:48;8.83;;;7.97;;
5010;SDS011;2524;54.364;10.072;2022-12-16T07:27:32;7.83;;;7.00;;
5010;SDS011;2524;54.364;10.072;2022-12-16T07:30:16;5.97;;;5.57;;
5010;SDS011;2524;54.364;10.072;2022-12-16T07:33:05;9.53;;;7.73;;
5010;SDS011;2524;54.364;10.072;2022-12-16T07:35:49;6.00;;;5.50;;
5010;SDS011;2524;54.364;10.072;2022-12-16T07:38:33;6.17;;;5.77;;
5010;SDS011;2524;54.364;10.072;2022-12-16T07:41:17;5.40;;;5.00;;
5010;SDS011;2524;54.364;10.072;2022-12-16T07:44:01;8.03;;;6.93;;
5010;SDS011;2524;54.364;10.072;2022-12-16T07:46:45;6.90;;;6.20;;
5010;SDS011;2524;54.364;10.072;2022-12-16T07:49:29;6.13;;;5.57;;
5010;SDS011;2524;54.364;10.072;2022-12-16T07:52:13;6.07;;;5.57;;
5010;SDS011;2524;54.364;10.072;2022-12-16T07:54:57;6.37;;;5.80;;
5010;SDS011;2524;54.364;10.072;2022-12-16T07:57:47;6.67;;;6.07;;
5010;SDS011;2524;54.364;10.072;2022-12-16T08:00:34;6.43;;;5.83;;
5010;SDS011;2524;54.364;10.072;2022-12-16T08:03:18;6.87;;;6.27;;
5010;SDS011;2524;54.364;10.072;2022-12-16T08:06:02;6.60;;;6.10;;
5010;SDS011;2524;54.364;10.072;2022-12-16T08:12:08;5.80;;;5.00;;
5010;SDS011;2524;54.364;10.072;2022-12-16T08:14:52;4.40;;;4.20;;
5010;SDS011;2524;54.364;10.072;2022-12-16T08:17:36;4.20;;;4.00;;
5010;SDS011;2524;54.364;10.072;2022-12-16T08:20:20;4.47;;;4.27;;
5010;SDS011;2524;54.364;10.072;2022-12-16T08:23:05;5.80;;;5.30;;
5010;SDS011;2524;54.364;10.072;2022-12-16T08:26:03;4.60;;;4.40;;
5010;SDS011;2524;54.364;10.072;2022-12-16T08:28:47;6.07;;;5.17;;
5010;SDS011;2524;54.364;10.072;2022-12-16T08:31:32;4.77;;;4.37;;
5010;SDS011;2524;54.364;10.072;2022-12-16T08:34:16;3.40;;;3.30;;
5010;SDS011;2524;54.364;10.072;2022-12-16T08:37:01;4.90;;;4.53;;
5010;SDS011;2524;54.364;10.072;2022-12-16T08:39:45;5.37;;;4.80;;
5010;SDS011;2524;54.364;10.072;2022-12-16T08:42:29;4.80;;;4.57;;
5010;SDS011;2524;54.364;10.072;2022-12-16T08:45:13;5.40;;;5.00;;
5010;SDS011;2524;54.364;10.072;2022-12-16T08:47:57;5.60;;;5.10;;
5010;SDS011;2524;54.364;10.072;2022-12-16T08:50:41;5.20;;;4.90;;
5010;SDS011;2524;54.364;10.072;2022-12-16T08:53:25;4.10;;;3.90;;
5010;SDS011;2524;54.364;10.072;2022-12-16T08:56:10;3.43;;;3.23;;
5010;SDS011;2524;54.364;10.072;2022-12-16T08:58:54;4.07;;;3.87;;
5010;SDS011;2524;54.364;10.072;2022-12-16T09:01:38;4.67;;;4.37;;
5010;SDS011;2524;54.364;10.072;2022-12-16T09:04:22;4.20;;;3.97;;
5010;SDS011;2524;54.364;10.072;2022-12-16T09:07:06;3.90;;;3.70;;
5010;SDS011;2524;54.364;10.072;2022-12-16T09:09:50;3.07;;;3.00;;
5010;SDS011;2524;54.364;10.072;2022-12-16T09:12:34;3.33;;;3.23;;
5010;SDS011;2524;54.364;10.072;2022-12-16T09:15:19;2.60;;;2.50;;
5010;SDS011;2524;54.364;10.072;2022-12-16T09:18:02;2.30;;;2.30;;
5010;SDS011;2524;54.364;10.072;2022-12-16T09:20:46;2.67;;;2.67;;
5010;SDS011;2524;54.364;10.072;2022-12-16T09:23:31;3.63;;;3.43;;
5010;SDS011;2524;54.364;10.072;2022-12-16T09:26:15;2.90;;;2.80;;
5010;SDS011;2524;54.364;10.072;2022-12-16T09:28:59;4.33;;;4.03;;
5010;SDS011;2524;54.364;10.072;2022-12-16T09:31:43;3.80;;;3.70;;
5010;SDS011;2524;54.364;10.072;2022-12-16T09:34:27;5.30;;;4.90;;
5010;SDS011;2524;54.364;10.072;2022-12-16T09:37:11;5.60;;;4.80;;
5010;SDS011;2524;54.364;10.072;2022-12-16T09:39:55;4.23;;;4.03;;
5010;SDS011;2524;54.364;10.072;2022-12-16T09:52:11;2.90;;;2.80;;
5010;SDS011;2524;54.364;10.072;2022-12-16T09:55:04;2.97;;;2.87;;
5010;SDS011;2524;54.364;10.072;2022-12-16T09:57:57;2.50;;;2.40;;
5010;SDS011;2524;54.364;10.072;2022-12-16T10:00:41;2.80;;;2.70;;
5010;SDS011;2524;54.364;10.072;2022-12-16T10:03:27;3.47;;;3.37;;
5010;SDS011;2524;54.364;10.072;2022-12-16T10:06:31;3.30;;;3.20;;
5010;SDS011;2524;54.364;10.072;2022-12-16T10:12:17;3.33;;;3.23;;
5010;SDS011;2524;54.364;10.072;2022-12-16T10:15:13;2.93;;;2.83;;
5010;SDS011;2524;54.364;10.072;2022-12-16T10:21:27;3.70;;;3.50;;
5010;SDS011;2524;54.364;10.072;2022-12-16T10:24:21;3.00;;;2.90;;
5010;SDS011;2524;54.364;10.072;2022-12-16T10:27:15;4.60;;;4.20;;
5010;SDS011;2524;54.364;10.072;2022-12-16T10:30:06;4.60;;;4.30;;
5010;SDS011;2524;54.364;10.072;2022-12-16T10:32:55;4.37;;;4.17;;
5010;SDS011;2524;54.364;10.072;2022-12-16T10:35:57;4.67;;;4.37;;
5010;SDS011;2524;54.364;10.072;2022-12-16T10:38:59;3.77;;;3.67;;
5010;SDS011;2524;54.364;10.072;2022-12-16T10:41:47;3.67;;;3.57;;
5010;SDS011;2524;54.364;10.072;2022-12-16T10:47:39;4.00;;;3.80;;
5010;SDS011;2524;54.364;10.072;2022-12-16T10:50:24;3.30;;;3.20;;
5010;SDS011;2524;54.364;10.072;2022-12-16T10:53:12;3.03;;;2.93;;
5010;SDS011;2524;54.364;10.072;2022-12-16T10:58:55;3.17;;;3.00;;
5010;SDS011;2524;54.364;10.072;2022-12-16T11:01:58;3.10;;;2.80;;
5010;SDS011;2524;54.364;10.072;2022-12-16T11:04:43;3.00;;;2.90;;
5010;SDS011;2524;54.364;10.072;2022-12-16T11:10:45;3.23;;;3.13;;
5010;SDS011;2524;54.364;10.072;2022-12-16T11:13:30;4.23;;;4.03;;
5010;SDS011;2524;54.364;10.072;2022-12-16T11:16:18;3.60;;;3.50;;
5010;SDS011;2524;54.364;10.072;2022-12-16T11:19:27;3.17;;;3.07;;
5010;SDS011;2524;54.364;10.072;2022-12-16T11:22:19;2.97;;;2.87;;
5010;SDS011;2524;54.364;10.072;2022-12-16T11:25:09;2.60;;;2.50;;
5010;SDS011;2524;54.364;10.072;2022-12-16T11:28:03;3.60;;;3.50;;
5010;SDS011;2524;54.364;10.072;2022-12-16T11:30:54;3.10;;;3.00;;
5010;SDS011;2524;54.364;10.072;2022-12-16T11:33:42;3.17;;;3.07;;
5010;SDS011;2524;54.364;10.072;2022-12-16T11:36:27;3.83;;;3.63;;
5010;SDS011;2524;54.364;10.072;2022-12-16T11:39:17;3.20;;;3.10;;
5010;SDS011;2524;54.364;10.072;2022-12-16T11:42:03;2.50;;;2.40;;
5010;SDS011;2524;54.364;10.072;2022-12-16T11:44:54;2.50;;;2.40;;
5010;SDS011;2524;54.364;10.072;2022-12-16T11:47:45;2.50;;;2.40;;
5010;SDS011;2524;54.364;10.072;2022-12-16T11:50:31;2.40;;;2.40;;
5010;SDS011;2524;54.364;10.072;2022-12-16T11:56:29;3.40;;;3.30;;
5010;SDS011;2524;54.364;10.072;2022-12-16T11:59:38;2.97;;;2.87;;
5010;SDS011;2524;54.364;10.072;2022-12-16T12:02:32;2.27;;;2.17;;
5010;SDS011;2524;54.364;10.072;2022-12-16T12:05:54;3.30;;;3.10;;
5010;SDS011;2524;54.364;10.072;2022-12-16T12:08:53;2.47;;;2.37;;
5010;SDS011;2524;54.364;10.072;2022-12-16T12:17:44;2.40;;;2.30;;
5010;SDS011;2524;54.364;10.072;2022-12-16T12:20:49;3.43;;;3.13;;
5010;SDS011;2524;54.364;10.072;2022-12-16T12:23:56;2.33;;;2.30;;
5010;SDS011;2524;54.364;10.072;2022-12-16T12:26:50;3.00;;;2.70;;
5010;SDS011;2524;54.364;10.072;2022-12-16T12:29:54;2.40;;;2.30;;
5010;SDS011;2524;54.364;10.072;2022-12-16T12:48:25;1.97;;;1.90;;
5010;SDS011;2524;54.364;10.072;2022-12-16T12:51:24;2.53;;;2.43;;
5010;SDS011;2524;54.364;10.072;2022-12-16T12:54:28;1.90;;;1.90;;
5010;SDS011;2524;54.364;10.072;2022-12-16T12:57:20;1.90;;;1.90;;
5010;SDS011;2524;54.364;10.072;2022-12-16T13:00:17;2.10;;;2.00;;
5010;SDS011;2524;54.364;10.072;2022-12-16T13:06:23;2.30;;;2.20;;
5010;SDS011;2524;54.364;10.072;2022-12-16T13:15:07;2.10;;;2.10;;
5010;SDS011;2524;54.364;10.072;2022-12-16T13:20:50;1.23;;;1.23;;
5010;SDS011;2524;54.364;10.072;2022-12-16T13:26:30;1.27;;;1.27;;
5010;SDS011;2524;54.364;10.072;2022-12-16T13:29:26;1.43;;;1.43;;
5010;SDS011;2524;54.364;10.072;2022-12-16T13:32:36;1.20;;;1.20;;
5010;SDS011;2524;54.364;10.072;2022-12-16T13:35:20;1.50;;;1.50;;
5010;SDS011;2524;54.364;10.072;2022-12-16T13:41:01;2.27;;;2.17;;
5010;SDS011;2524;54.364;10.072;2022-12-16T13:43:53;3.10;;;3.00;;
5010;SDS011;2524;54.364;10.072;2022-12-16T13:46:48;3.90;;;3.70;;
5010;SDS011;2524;54.364;10.072;2022-12-16T13:49:47;3.10;;;3.00;;
5010;SDS011;2524;54.364;10.072;2022-12-16T14:04:42;2.40;;;2.30;;
5010;SDS011;2524;54.364;10.072;2022-12-16T14:07:29;2.17;;;2.10;;
5010;SDS011;2524;54.364;10.072;2022-12-16T14:10:34;2.00;;;2.00;;
5010;SDS011;2524;54.364;10.072;2022-12-16T14:13:30;2.10;;;2.10;;
5010;SDS011;2524;54.364;10.072;2022-12-16T14:25:41;2.40;;;2.30;;
5010;SDS011;2524;54.364;10.072;2022-12-16T14:28:28;2.57;;;2.47;;
5010;SDS011;2524;54.364;10.072;2022-12-16T14:31:23;1.87;;;1.87;;
5010;SDS011;2524;54.364;10.072;2022-12-16T14:34:11;1.80;;;1.80;;
5010;SDS011;2524;54.364;10.072;2022-12-16T14:40:20;1.97;;;1.97;;
5010;SDS011;2524;54.364;10.072;2022-12-16T14:43:23;2.00;;;1.90;;
5010;SDS011;2524;54.364;10.072;2022-12-16T14:49:18;3.07;;;2.97;;
5010;SDS011;2524;54.364;10.072;2022-12-16T14:55:11;3.80;;;3.70;;
5010;SDS011;2524;54.364;10.072;2022-12-16T14:58:19;3.17;;;3.03;;
5010;SDS011;2524;54.364;10.072;2022-12-16T15:01:11;3.53;;;3.43;;
5010;SDS011;2524;54.364;10.072;2022-12-16T15:04:14;3.20;;;3.10;;
5010;SDS011;2524;54.364;10.072;2022-12-16T15:07:05;3.03;;;2.93;;
5010;SDS011;2524;54.364;10.072;2022-12-16T15:09:53;2.97;;;2.87;;
5010;SDS011;2524;54.364;10.072;2022-12-16T15:12:40;4.37;;;4.03;;
5010;SDS011;2524;54.364;10.072;2022-12-16T15:15:31;3.30;;;3.10;;
5010;SDS011;2524;54.364;10.072;2022-12-16T15:18:22;2.70;;;2.60;;
5010;SDS011;2524;54.364;10.072;2022-12-16T15:21:13;3.37;;;3.20;;
5010;SDS011;2524;54.364;10.072;2022-12-16T15:23:57;2.60;;;2.53;;
5010;SDS011;2524;54.364;10.072;2022-12-16T15:26:41;2.73;;;2.63;;
5010;SDS011;2524;54.364;10.072;2022-12-16T15:29:40;3.10;;;3.00;;
5010;SDS011;2524;54.364;10.072;2022-12-16T15:35:09;3.10;;;3.00;;
5010;SDS011;2524;54.364;10.072;2022-12-16T15:41:02;3.57;;;3.47;;
5010;SDS011;2524;54.364;10.072;2022-12-16T15:43:48;3.90;;;3.80;;
5010;SDS011;2524;54.364;10.072;2022-12-16T15:46:33;3.97;;;3.77;;
5010;SDS011;2524;54.364;10.072;2022-12-16T15:49:32;3.53;;;3.33;;
5010;SDS011;2524;54.364;10.072;2022-12-16T15:52:36;3.30;;;3.20;;
5010;SDS011;2524;54.364;10.072;2022-12-16T15:55:30;4.07;;;3.87;;
5010;SDS011;2524;54.364;10.072;2022-12-16T15:58:34;5.00;;;4.70;;
5010;SDS011;2524;54.364;10.072;2022-12-16T16:01:23;5.20;;;4.90;;
5010;SDS011;2524;54.364;10.072;2022-12-16T16:04:25;4.60;;;4.30;;
5010;SDS011;2524;54.364;10.072;2022-12-16T16:07:15;4.53;;;4.33;;
5010;SDS011;2524;54.364;10.072;2022-12-16T16:10:17;4.63;;;4.33;;
5010;SDS011;2524;54.364;10.072;2022-12-16T16:13:03;4.30;;;4.10;;
5010;SDS011;2524;54.364;10.072;2022-12-16T16:15:48;4.70;;;4.40;;
5010;SDS011;2524;54.364;10.072;2022-12-16T16:18:33;4.53;;;4.30;;
5010;SDS011;2524;54.364;10.072;2022-12-16T16:21:18;4.43;;;4.13;;
5010;SDS011;2524;54.364;10.072;2022-12-16T16:24:02;4.40;;;4.10;;
5010;SDS011;2524;54.364;10.072;2022-12-16T16:26:46;5.00;;;4.60;;
5010;SDS011;2524;54.364;10.072;2022-12-16T16:29:30;5.53;;;5.13;;
5010;SDS011;2524;54.364;10.072;2022-12-16T16:32:14;5.00;;;4.70;;
5010;SDS011;2524;54.364;10.072;2022-12-16T16:34:59;5.60;;;5.20;;
5010;SDS011;2524;54.364;10.072;2022-12-16T16:37:43;6.13;;;5.63;;
5010;SDS011;2524;54.364;10.072;2022-12-16T16:40:31;7.87;;;7.07;;
5010;SDS011;2524;54.364;10.072;2022-12-16T16:43:20;6.03;;;5.53;;
5010;SDS011;2524;54.364;10.072;2022-12-16T16:48:55;7.00;;;6.33;;
5010;SDS011;2524;54.364;10.072;2022-12-16T16:51:39;7.47;;;6.73;;
5010;SDS011;2524;54.364;10.072;2022-12-16T16:54:23;9.00;;;7.97;;
5010;SDS011;2524;54.364;10.072;2022-12-16T16:57:07;13.03;;;9.67;;
5010;SDS011;2524;54.364;10.072;2022-12-16T16:59:52;16.90;;;10.73;;
5010;SDS011;2524;54.364;10.072;2022-12-16T17:02:36;13.00;;;8.70;;
5010;SDS011;2524;54.364;10.072;2022-12-16T17:05:20;12.23;;;9.13;;
5010;SDS011;2524;54.364;10.072;2022-12-16T17:08:04;19.90;;;12.40;;
5010;SDS011;2524;54.364;10.072;2022-12-16T17:10:48;18.50;;;12.27;;
5010;SDS011;2524;54.364;10.072;2022-12-16T17:13:32;14.80;;;10.70;;
5010;SDS011;2524;54.364;10.072;2022-12-16T17:16:19;16.33;;;10.80;;
5010;SDS011;2524;54.364;10.072;2022-12-16T17:19:35;18.90;;;11.50;;
5010;SDS011;2524;54.364;10.072;2022-12-16T17:22:19;13.53;;;10.07;;
5010;SDS011;2524;54.364;10.072;2022-12-16T17:25:04;13.17;;;9.83;;
5010;SDS011;2524;54.364;10.072;2022-12-16T17:27:53;13.27;;;9.00;;
5010;SDS011;2524;54.364;10.072;2022-12-16T17:30:37;11.03;;;9.13;;
5010;SDS011;2524;54.364;10.072;2022-12-16T17:33:22;12.63;;;10.57;;
5010;SDS011;2524;54.364;10.072;2022-12-16T17:36:08;14.27;;;10.07;;
5010;SDS011;2524;54.364;10.072;2022-12-16T17:38:54;12.37;;;10.43;;
5010;SDS011;2524;54.364;10.072;2022-12-16T17:41:39;10.33;;;9.33;;
5010;SDS011;2524;54.364;10.072;2022-12-16T17:44:23;11.40;;;9.50;;
5010;SDS011;2524;54.364;10.072;2022-12-16T17:47:06;11.13;;;8.93;;
5010;SDS011;2524;54.364;10.072;2022-12-16T17:49:51;9.30;;;8.40;;
5010;SDS011;2524;54.364;10.072;2022-12-16T17:52:35;11.90;;;8.80;;
5010;SDS011;2524;54.364;10.072;2022-12-16T17:55:19;11.67;;;9.30;;
5010;SDS011;2524;54.364;10.072;2022-12-16T17:58:04;13.53;;;10.30;;
5010;SDS011;2524;54.364;10.072;2022-12-16T18:00:47;16.37;;;11.60;;
5010;SDS011;2524;54.364;10.072;2022-12-16T18:03:32;16.97;;;11.77;;
5010;SDS011;2524;54.364;10.072;2022-12-16T18:06:16;17.97;;;11.97;;
5010;SDS011;2524;54.364;10.072;2022-12-16T18:09:00;12.60;;;10.00;;
5010;SDS011;2524;54.364;10.072;2022-12-16T18:11:44;12.17;;;9.73;;
5010;SDS011;2524;54.364;10.072;2022-12-16T18:14:28;9.93;;;8.80;;
5010;SDS011;2524;54.364;10.072;2022-12-16T18:17:12;9.53;;;8.50;;
5010;SDS011;2524;54.364;10.072;2022-12-16T18:19:56;10.67;;;9.20;;
5010;SDS011;2524;54.364;10.072;2022-12-16T18:22:40;11.93;;;9.60;;
5010;SDS011;2524;54.364;10.072;2022-12-16T18:25:24;11.73;;;9.80;;
5010;SDS011;2524;54.364;10.072;2022-12-16T18:28:08;11.83;;;9.53;;
5010;SDS011;2524;54.364;10.072;2022-12-16T18:30:52;11.60;;;9.33;;
5010;SDS011;2524;54.364;10.072;2022-12-16T18:33:36;7.97;;;7.27;;
5010;SDS011;2524;54.364;10.072;2022-12-16T18:36:20;8.63;;;7.70;;
5010;SDS011;2524;54.364;10.072;2022-12-16T18:39:05;7.87;;;7.07;;
5010;SDS011;2524;54.364;10.072;2022-12-16T18:41:49;7.30;;;6.70;;
5010;SDS011;2524;54.364;10.072;2022-12-16T18:44:50;9.23;;;8.37;;
5010;SDS011;2524;54.364;10.072;2022-12-16T18:47:34;7.47;;;6.77;;